sensor_id;sensor_type;location;lat;lon;timestamp;temperature;humidity
921;DHT22;447;51.332;6.778;2023-07-29T00:00:47;22.70;95.80
921;DHT22;447;51.332;6.778;2023-07-29T00:03:15;22.70;95.80
921;DHT22;447;51.332;6.778;2023-07-29T00:05:44;22.70;95.80
921;DHT22;447;51.332;6.778;2023-07-29T00:08:12;22.70;95.80
921;DHT22;447;51.332;6.778;2023-07-29T00:10:45;22.70;95.80
921;DHT22;447;51.332;6.778;2023-07-29T00:13:11;22.60;95.70
921;DHT22;447;51.332;6.778;2023-07-29T00:15:39;22.60;95.70
921;DHT22;447;51.332;6.778;2023-07-29T00:18:05;22.60;95.70
921;DHT22;447;51.332;6.778;2023-07-29T00:20:30;22.60;95.70
921;DHT22;447;51.332;6.778;2023-07-29T00:23:01;22.60;95.60
921;DHT22;447;51.332;6.778;2023-07-29T00:25:28;22.60;95.60
921;DHT22;447;51.332;6.778;2023-07-29T00:27:58;22.60;95.60
921;DHT22;447;51.332;6.778;2023-07-29T00:30:24;22.60;95.60
921;DHT22;447;51.332;6.778;2023-07-29T00:32:50;22.60;95.60
921;DHT22;447;51.332;6.778;2023-07-29T00:35:16;22.60;95.60
921;DHT22;447;51.332;6.778;2023-07-29T00:37:45;22.60;95.60
921;DHT22;447;51.332;6.778;2023-07-29T00:40:15;22.60;95.60
921;DHT22;447;51.332;6.778;2023-07-29T00:42:42;22.60;95.60
921;DHT22;447;51.332;6.778;2023-07-29T00:45:10;22.60;95.60
921;DHT22;447;51.332;6.778;2023-07-29T00:47:37;22.60;95.60
921;DHT22;447;51.332;6.778;2023-07-29T00:50:07;22.60;95.60
921;DHT22;447;51.332;6.778;2023-07-29T00:52:35;22.60;95.60
921;DHT22;447;51.332;6.778;2023-07-29T00:55:01;22.60;95.60
921;DHT22;447;51.332;6.778;2023-07-29T00:57:28;22.50;95.50
921;DHT22;447;51.332;6.778;2023-07-29T00:59:57;22.50;95.50
921;DHT22;447;51.332;6.778;2023-07-29T01:02:26;22.50;95.50
921;DHT22;447;51.332;6.778;2023-07-29T01:04:57;22.50;95.50
921;DHT22;447;51.332;6.778;2023-07-29T01:10:03;22.50;95.50
921;DHT22;447;51.332;6.778;2023-07-29T01:12:48;22.50;95.50
921;DHT22;447;51.332;6.778;2023-07-29T01:15:28;22.50;95.50
921;DHT22;447;51.332;6.778;2023-07-29T01:18:05;22.50;95.50
921;DHT22;447;51.332;6.778;2023-07-29T01:20:40;22.50;95.50
921;DHT22;447;51.332;6.778;2023-07-29T01:23:09;22.50;95.50
921;DHT22;447;51.332;6.778;2023-07-29T01:25:35;22.50;95.50
921;DHT22;447;51.332;6.778;2023-07-29T01:28:05;22.50;95.50
921;DHT22;447;51.332;6.778;2023-07-29T01:30:38;22.50;95.50
921;DHT22;447;51.332;6.778;2023-07-29T01:33:17;22.50;95.50
921;DHT22;447;51.332;6.778;2023-07-29T01:38:17;22.40;95.40
921;DHT22;447;51.332;6.778;2023-07-29T01:40:44;22.40;95.40
921;DHT22;447;51.332;6.778;2023-07-29T01:43:12;22.40;95.40
921;DHT22;447;51.332;6.778;2023-07-29T01:45:39;22.40;95.40
921;DHT22;447;51.332;6.778;2023-07-29T01:48:10;22.40;95.40
921;DHT22;447;51.332;6.778;2023-07-29T01:50:38;22.40;95.40
921;DHT22;447;51.332;6.778;2023-07-29T01:53:04;22.40;95.40
921;DHT22;447;51.332;6.778;2023-07-29T01:55:30;22.40;95.40
921;DHT22;447;51.332;6.778;2023-07-29T01:57:55;22.40;95.40
921;DHT22;447;51.332;6.778;2023-07-29T02:00:23;22.40;95.40
921;DHT22;447;51.332;6.778;2023-07-29T02:02:53;22.40;95.40
921;DHT22;447;51.332;6.778;2023-07-29T02:05:19;22.40;95.40
921;DHT22;447;51.332;6.778;2023-07-29T02:07:45;22.40;95.40
921;DHT22;447;51.332;6.778;2023-07-29T02:10:14;22.40;95.30
921;DHT22;447;51.332;6.778;2023-07-29T02:12:40;22.40;95.40
921;DHT22;447;51.332;6.778;2023-07-29T02:15:07;22.40;95.40
921;DHT22;447;51.332;6.778;2023-07-29T02:17:40;22.40;95.40
921;DHT22;447;51.332;6.778;2023-07-29T02:20:11;22.40;95.40
921;DHT22;447;51.332;6.778;2023-07-29T02:22:37;22.40;95.30
921;DHT22;447;51.332;6.778;2023-07-29T02:25:06;22.40;95.40
921;DHT22;447;51.332;6.778;2023-07-29T02:27:32;22.40;95.40
921;DHT22;447;51.332;6.778;2023-07-29T02:30:00;22.40;95.40
921;DHT22;447;51.332;6.778;2023-07-29T02:32:26;22.40;95.40
921;DHT22;447;51.332;6.778;2023-07-29T02:34:52;22.40;95.40
921;DHT22;447;51.332;6.778;2023-07-29T02:37:18;22.30;95.30
921;DHT22;447;51.332;6.778;2023-07-29T02:39:44;22.30;95.30
921;DHT22;447;51.332;6.778;2023-07-29T02:42:10;22.30;95.30
921;DHT22;447;51.332;6.778;2023-07-29T02:44:36;22.30;95.30
921;DHT22;447;51.332;6.778;2023-07-29T02:47:03;22.30;95.30
921;DHT22;447;51.332;6.778;2023-07-29T02:49:29;22.30;95.30
921;DHT22;447;51.332;6.778;2023-07-29T02:51:55;22.30;95.30
921;DHT22;447;51.332;6.778;2023-07-29T02:54:25;22.30;95.30
921;DHT22;447;51.332;6.778;2023-07-29T02:56:53;22.30;95.40
921;DHT22;447;51.332;6.778;2023-07-29T02:59:20;22.30;95.30
921;DHT22;447;51.332;6.778;2023-07-29T03:01:45;22.30;95.30
921;DHT22;447;51.332;6.778;2023-07-29T03:04:11;22.30;95.30
921;DHT22;447;51.332;6.778;2023-07-29T03:06:40;22.30;95.30
921;DHT22;447;51.332;6.778;2023-07-29T03:09:06;22.30;95.30
921;DHT22;447;51.332;6.778;2023-07-29T03:11:32;22.30;95.30
921;DHT22;447;51.332;6.778;2023-07-29T03:13:58;22.30;95.30
921;DHT22;447;51.332;6.778;2023-07-29T03:16:31;22.30;95.30
921;DHT22;447;51.332;6.778;2023-07-29T03:18:59;22.30;95.30
921;DHT22;447;51.332;6.778;2023-07-29T03:21:26;22.30;95.40
921;DHT22;447;51.332;6.778;2023-07-29T03:23:52;22.30;95.40
921;DHT22;447;51.332;6.778;2023-07-29T03:26:20;22.30;95.40
921;DHT22;447;51.332;6.778;2023-07-29T03:28:46;22.30;95.40
921;DHT22;447;51.332;6.778;2023-07-29T03:31:12;22.20;95.40
921;DHT22;447;51.332;6.778;2023-07-29T03:33:38;22.20;95.40
921;DHT22;447;51.332;6.778;2023-07-29T03:36:04;22.20;95.40
921;DHT22;447;51.332;6.778;2023-07-29T03:38:30;22.20;95.40
921;DHT22;447;51.332;6.778;2023-07-29T03:41:01;22.20;95.50
921;DHT22;447;51.332;6.778;2023-07-29T03:43:29;22.20;95.50
921;DHT22;447;51.332;6.778;2023-07-29T03:46:00;22.20;95.50
921;DHT22;447;51.332;6.778;2023-07-29T03:48:26;22.20;95.50
921;DHT22;447;51.332;6.778;2023-07-29T03:50:52;22.20;95.50
921;DHT22;447;51.332;6.778;2023-07-29T03:53:23;22.20;95.50
921;DHT22;447;51.332;6.778;2023-07-29T03:55:49;22.20;95.50
921;DHT22;447;51.332;6.778;2023-07-29T03:58:17;22.20;95.60
921;DHT22;447;51.332;6.778;2023-07-29T04:00:45;22.20;95.60
921;DHT22;447;51.332;6.778;2023-07-29T04:03:11;22.20;95.70
921;DHT22;447;51.332;6.778;2023-07-29T04:05:42;22.20;95.70
921;DHT22;447;51.332;6.778;2023-07-29T04:08:08;22.20;95.70
921;DHT22;447;51.332;6.778;2023-07-29T04:10:39;22.20;95.70
921;DHT22;447;51.332;6.778;2023-07-29T04:13:07;22.20;95.70
921;DHT22;447;51.332;6.778;2023-07-29T04:15:33;22.20;95.70
921;DHT22;447;51.332;6.778;2023-07-29T04:17:59;22.20;95.70
921;DHT22;447;51.332;6.778;2023-07-29T04:20:27;22.20;95.70
921;DHT22;447;51.332;6.778;2023-07-29T04:22:56;22.20;95.70
921;DHT22;447;51.332;6.778;2023-07-29T04:25:21;22.20;95.70
921;DHT22;447;51.332;6.778;2023-07-29T04:27:50;22.10;95.60
921;DHT22;447;51.332;6.778;2023-07-29T04:30:16;22.20;95.70
921;DHT22;447;51.332;6.778;2023-07-29T04:32:41;22.10;95.60
921;DHT22;447;51.332;6.778;2023-07-29T04:35:10;22.10;95.70
921;DHT22;447;51.332;6.778;2023-07-29T04:37:39;22.10;95.70
921;DHT22;447;51.332;6.778;2023-07-29T04:40:07;22.10;95.70
921;DHT22;447;51.332;6.778;2023-07-29T04:42:33;22.10;95.70
921;DHT22;447;51.332;6.778;2023-07-29T04:44:59;22.10;95.70
921;DHT22;447;51.332;6.778;2023-07-29T04:47:25;22.10;95.70
921;DHT22;447;51.332;6.778;2023-07-29T04:49:51;22.10;95.70
921;DHT22;447;51.332;6.778;2023-07-29T04:52:17;22.10;95.70
921;DHT22;447;51.332;6.778;2023-07-29T04:54:47;22.10;95.80
921;DHT22;447;51.332;6.778;2023-07-29T04:57:15;22.10;95.80
921;DHT22;447;51.332;6.778;2023-07-29T04:59:43;22.10;95.80
921;DHT22;447;51.332;6.778;2023-07-29T05:02:09;22.10;95.80
921;DHT22;447;51.332;6.778;2023-07-29T05:04:37;22.10;95.80
921;DHT22;447;51.332;6.778;2023-07-29T05:07:03;22.10;95.80
921;DHT22;447;51.332;6.778;2023-07-29T05:09:29;22.10;95.80
921;DHT22;447;51.332;6.778;2023-07-29T05:11:55;22.10;95.80
921;DHT22;447;51.332;6.778;2023-07-29T05:14:26;22.10;95.90
921;DHT22;447;51.332;6.778;2023-07-29T05:16:52;22.10;95.90
921;DHT22;447;51.332;6.778;2023-07-29T05:19:18;22.10;95.80
921;DHT22;447;51.332;6.778;2023-07-29T05:21:44;22.10;95.80
921;DHT22;447;51.332;6.778;2023-07-29T05:24:14;22.10;95.80
921;DHT22;447;51.332;6.778;2023-07-29T05:26:40;22.10;95.80
921;DHT22;447;51.332;6.778;2023-07-29T05:29:06;22.10;95.80
921;DHT22;447;51.332;6.778;2023-07-29T05:31:34;22.00;95.70
921;DHT22;447;51.332;6.778;2023-07-29T05:34:00;22.00;95.70
921;DHT22;447;51.332;6.778;2023-07-29T05:36:27;22.00;95.70
921;DHT22;447;51.332;6.778;2023-07-29T05:38:53;22.00;95.80
921;DHT22;447;51.332;6.778;2023-07-29T05:41:19;22.00;95.80
921;DHT22;447;51.332;6.778;2023-07-29T05:43:45;22.00;95.80
921;DHT22;447;51.332;6.778;2023-07-29T05:46:11;22.00;95.80
921;DHT22;447;51.332;6.778;2023-07-29T05:48:37;22.00;95.80
921;DHT22;447;51.332;6.778;2023-07-29T05:51:05;22.00;95.80
921;DHT22;447;51.332;6.778;2023-07-29T05:53:31;22.00;95.80
921;DHT22;447;51.332;6.778;2023-07-29T05:55:59;22.00;95.80
921;DHT22;447;51.332;6.778;2023-07-29T05:58:25;22.00;95.80
921;DHT22;447;51.332;6.778;2023-07-29T06:00:56;22.00;95.80
921;DHT22;447;51.332;6.778;2023-07-29T06:03:24;22.00;95.70
921;DHT22;447;51.332;6.778;2023-07-29T06:05:51;22.00;95.70
921;DHT22;447;51.332;6.778;2023-07-29T06:08:21;22.00;95.70
921;DHT22;447;51.332;6.778;2023-07-29T06:10:49;22.00;95.80
921;DHT22;447;51.332;6.778;2023-07-29T06:13:15;22.00;95.80
921;DHT22;447;51.332;6.778;2023-07-29T06:15:41;22.00;95.90
921;DHT22;447;51.332;6.778;2023-07-29T06:18:07;22.00;95.80
921;DHT22;447;51.332;6.778;2023-07-29T06:20:33;22.00;95.90
921;DHT22;447;51.332;6.778;2023-07-29T06:22:59;22.00;96.20
921;DHT22;447;51.332;6.778;2023-07-29T06:25:28;22.00;95.90
921;DHT22;447;51.332;6.778;2023-07-29T06:27:56;22.00;95.90
921;DHT22;447;51.332;6.778;2023-07-29T06:30:26;22.00;95.90
921;DHT22;447;51.332;6.778;2023-07-29T06:32:52;22.00;95.90
921;DHT22;447;51.332;6.778;2023-07-29T06:35:18;22.00;95.80
921;DHT22;447;51.332;6.778;2023-07-29T06:37:43;22.00;95.90
921;DHT22;447;51.332;6.778;2023-07-29T06:40:10;22.00;95.90
921;DHT22;447;51.332;6.778;2023-07-29T06:42:38;22.00;95.80
921;DHT22;447;51.332;6.778;2023-07-29T06:45:09;22.00;95.90
921;DHT22;447;51.332;6.778;2023-07-29T06:47:35;22.00;96.00
921;DHT22;447;51.332;6.778;2023-07-29T06:50:07;21.90;95.90
921;DHT22;447;51.332;6.778;2023-07-29T06:52:35;22.00;95.90
921;DHT22;447;51.332;6.778;2023-07-29T06:55:05;21.90;95.90
921;DHT22;447;51.332;6.778;2023-07-29T06:57:33;22.00;95.90
921;DHT22;447;51.332;6.778;2023-07-29T07:00:02;22.00;96.00
921;DHT22;447;51.332;6.778;2023-07-29T07:02:33;22.00;95.90
921;DHT22;447;51.332;6.778;2023-07-29T07:05:01;21.90;95.80
921;DHT22;447;51.332;6.778;2023-07-29T07:07:27;22.00;95.90
921;DHT22;447;51.332;6.778;2023-07-29T07:09:58;22.00;96.10
921;DHT22;447;51.332;6.778;2023-07-29T07:12:26;22.00;96.20
921;DHT22;447;51.332;6.778;2023-07-29T07:14:54;22.00;96.10
921;DHT22;447;51.332;6.778;2023-07-29T07:17:20;21.90;96.00
921;DHT22;447;51.332;6.778;2023-07-29T07:19:50;22.00;96.10
921;DHT22;447;51.332;6.778;2023-07-29T07:22:19;22.00;96.00
921;DHT22;447;51.332;6.778;2023-07-29T07:24:45;21.90;95.90
921;DHT22;447;51.332;6.778;2023-07-29T07:27:11;22.00;96.00
921;DHT22;447;51.332;6.778;2023-07-29T07:29:40;22.00;95.90
921;DHT22;447;51.332;6.778;2023-07-29T07:32:11;22.00;95.90
921;DHT22;447;51.332;6.778;2023-07-29T07:34:36;22.00;95.80
921;DHT22;447;51.332;6.778;2023-07-29T07:37:02;22.00;95.80
921;DHT22;447;51.332;6.778;2023-07-29T07:39:31;22.00;95.90
921;DHT22;447;51.332;6.778;2023-07-29T07:41:57;22.00;95.80
921;DHT22;447;51.332;6.778;2023-07-29T07:44:25;22.00;95.90
921;DHT22;447;51.332;6.778;2023-07-29T07:46:54;22.00;95.80
921;DHT22;447;51.332;6.778;2023-07-29T07:49:24;22.00;95.80
921;DHT22;447;51.332;6.778;2023-07-29T07:51:50;22.00;95.80
921;DHT22;447;51.332;6.778;2023-07-29T07:54:18;22.00;95.80
921;DHT22;447;51.332;6.778;2023-07-29T07:56:44;22.00;95.70
921;DHT22;447;51.332;6.778;2023-07-29T07:59:10;22.00;95.70
921;DHT22;447;51.332;6.778;2023-07-29T08:01:39;22.00;95.70
921;DHT22;447;51.332;6.778;2023-07-29T08:04:06;22.00;95.70
921;DHT22;447;51.332;6.778;2023-07-29T08:06:34;22.00;95.60
921;DHT22;447;51.332;6.778;2023-07-29T08:09:01;22.00;95.70
921;DHT22;447;51.332;6.778;2023-07-29T08:11:27;22.00;95.70
921;DHT22;447;51.332;6.778;2023-07-29T08:13:55;22.00;95.60
921;DHT22;447;51.332;6.778;2023-07-29T08:16:21;22.00;95.70
921;DHT22;447;51.332;6.778;2023-07-29T08:18:47;22.00;95.70
921;DHT22;447;51.332;6.778;2023-07-29T08:21:13;22.00;95.60
921;DHT22;447;51.332;6.778;2023-07-29T08:23:38;22.10;95.60
921;DHT22;447;51.332;6.778;2023-07-29T08:26:09;22.10;95.70
921;DHT22;447;51.332;6.778;2023-07-29T08:28:40;22.10;95.60
921;DHT22;447;51.332;6.778;2023-07-29T08:31:08;22.10;95.60
921;DHT22;447;51.332;6.778;2023-07-29T08:33:34;22.10;95.50
921;DHT22;447;51.332;6.778;2023-07-29T08:36:01;22.10;95.50
921;DHT22;447;51.332;6.778;2023-07-29T08:38:29;22.10;95.50
921;DHT22;447;51.332;6.778;2023-07-29T08:44:24;22.10;95.60
921;DHT22;447;51.332;6.778;2023-07-29T08:47:14;22.10;95.60
921;DHT22;447;51.332;6.778;2023-07-29T08:49:45;22.10;95.60
921;DHT22;447;51.332;6.778;2023-07-29T08:52:12;22.20;95.60
921;DHT22;447;51.332;6.778;2023-07-29T08:54:42;22.20;95.50
921;DHT22;447;51.332;6.778;2023-07-29T08:57:08;22.20;95.60
921;DHT22;447;51.332;6.778;2023-07-29T08:59:37;22.20;95.60
921;DHT22;447;51.332;6.778;2023-07-29T09:02:03;22.20;95.60
921;DHT22;447;51.332;6.778;2023-07-29T09:04:29;22.20;95.60
921;DHT22;447;51.332;6.778;2023-07-29T09:06:58;22.20;95.50
921;DHT22;447;51.332;6.778;2023-07-29T09:09:29;22.30;95.60
921;DHT22;447;51.332;6.778;2023-07-29T09:12:06;22.30;95.50
921;DHT22;447;51.332;6.778;2023-07-29T09:14:33;22.30;95.40
921;DHT22;447;51.332;6.778;2023-07-29T09:17:00;22.30;95.30
921;DHT22;447;51.332;6.778;2023-07-29T09:19:26;22.30;95.30
921;DHT22;447;51.332;6.778;2023-07-29T09:22:07;22.40;95.30
921;DHT22;447;51.332;6.778;2023-07-29T09:25:12;22.40;95.30
921;DHT22;447;51.332;6.778;2023-07-29T09:31:43;22.40;95.10
921;DHT22;447;51.332;6.778;2023-07-29T09:34:18;22.40;95.10
921;DHT22;447;51.332;6.778;2023-07-29T09:36:44;22.40;95.10
921;DHT22;447;51.332;6.778;2023-07-29T09:39:43;22.40;95.10
921;DHT22;447;51.332;6.778;2023-07-29T09:42:19;22.50;95.10
921;DHT22;447;51.332;6.778;2023-07-29T09:44:50;22.50;95.10
921;DHT22;447;51.332;6.778;2023-07-29T09:47:48;22.40;95.00
921;DHT22;447;51.332;6.778;2023-07-29T09:50:31;22.50;95.10
921;DHT22;447;51.332;6.778;2023-07-29T10:01:20;22.50;95.10
921;DHT22;447;51.332;6.778;2023-07-29T10:03:52;22.50;95.10
921;DHT22;447;51.332;6.778;2023-07-29T10:06:35;22.50;95.10
921;DHT22;447;51.332;6.778;2023-07-29T10:09:20;22.50;95.20
921;DHT22;447;51.332;6.778;2023-07-29T10:11:54;22.50;95.20
921;DHT22;447;51.332;6.778;2023-07-29T10:14:22;22.50;95.20
921;DHT22;447;51.332;6.778;2023-07-29T10:21:05;22.50;95.20
921;DHT22;447;51.332;6.778;2023-07-29T10:23:43;22.50;95.30
921;DHT22;447;51.332;6.778;2023-07-29T10:26:14;22.60;95.40
921;DHT22;447;51.332;6.778;2023-07-29T10:29:20;22.60;95.40
921;DHT22;447;51.332;6.778;2023-07-29T10:32:04;22.60;95.30
921;DHT22;447;51.332;6.778;2023-07-29T10:34:35;22.70;95.30
921;DHT22;447;51.332;6.778;2023-07-29T10:37:03;22.70;95.20
921;DHT22;447;51.332;6.778;2023-07-29T10:39:51;22.70;95.20
921;DHT22;447;51.332;6.778;2023-07-29T10:42:28;22.70;95.20
921;DHT22;447;51.332;6.778;2023-07-29T10:44:54;22.70;95.20
921;DHT22;447;51.332;6.778;2023-07-29T10:47:26;22.70;95.10
921;DHT22;447;51.332;6.778;2023-07-29T10:50:00;22.80;95.10
921;DHT22;447;51.332;6.778;2023-07-29T10:55:28;22.80;95.00
921;DHT22;447;51.332;6.778;2023-07-29T10:58:16;22.80;94.90
921;DHT22;447;51.332;6.778;2023-07-29T11:00:45;22.90;94.90
921;DHT22;447;51.332;6.778;2023-07-29T11:03:14;22.90;94.90
921;DHT22;447;51.332;6.778;2023-07-29T11:05:44;22.90;94.90
921;DHT22;447;51.332;6.778;2023-07-29T11:08:17;22.90;94.90
921;DHT22;447;51.332;6.778;2023-07-29T11:10:44;22.90;94.90
921;DHT22;447;51.332;6.778;2023-07-29T11:13:22;23.00;95.00
921;DHT22;447;51.332;6.778;2023-07-29T11:15:49;23.00;95.00
921;DHT22;447;51.332;6.778;2023-07-29T11:18:16;23.00;94.90
921;DHT22;447;51.332;6.778;2023-07-29T11:20:44;23.00;94.80
921;DHT22;447;51.332;6.778;2023-07-29T11:23:14;23.00;94.80
921;DHT22;447;51.332;6.778;2023-07-29T11:25:43;23.00;94.70
921;DHT22;447;51.332;6.778;2023-07-29T11:28:09;23.10;94.70
921;DHT22;447;51.332;6.778;2023-07-29T11:30:40;23.10;94.70
921;DHT22;447;51.332;6.778;2023-07-29T11:33:10;23.10;94.60
921;DHT22;447;51.332;6.778;2023-07-29T11:35:37;23.10;94.50
921;DHT22;447;51.332;6.778;2023-07-29T11:38:04;23.10;94.40
921;DHT22;447;51.332;6.778;2023-07-29T11:40:35;23.10;94.40
921;DHT22;447;51.332;6.778;2023-07-29T11:43:01;23.10;94.40
921;DHT22;447;51.332;6.778;2023-07-29T11:45:29;23.20;94.50
921;DHT22;447;51.332;6.778;2023-07-29T11:47:55;23.20;94.40
921;DHT22;447;51.332;6.778;2023-07-29T11:50:24;23.20;94.50
921;DHT22;447;51.332;6.778;2023-07-29T11:52:50;23.20;94.40
921;DHT22;447;51.332;6.778;2023-07-29T11:55:18;23.20;94.40
921;DHT22;447;51.332;6.778;2023-07-29T11:57:51;23.30;94.30
921;DHT22;447;51.332;6.778;2023-07-29T12:00:18;23.30;94.20
921;DHT22;447;51.332;6.778;2023-07-29T12:02:45;23.30;94.10
921;DHT22;447;51.332;6.778;2023-07-29T12:05:15;23.30;94.10
921;DHT22;447;51.332;6.778;2023-07-29T12:07:43;23.30;94.00
921;DHT22;447;51.332;6.778;2023-07-29T12:10:10;23.40;94.10
921;DHT22;447;51.332;6.778;2023-07-29T12:12:49;23.40;94.10
921;DHT22;447;51.332;6.778;2023-07-29T12:15:29;23.40;94.20
921;DHT22;447;51.332;6.778;2023-07-29T12:17:59;23.40;94.30
921;DHT22;447;51.332;6.778;2023-07-29T12:20:29;23.40;94.40
921;DHT22;447;51.332;6.778;2023-07-29T12:22:59;23.50;94.30
921;DHT22;447;51.332;6.778;2023-07-29T12:25:29;23.50;94.30
921;DHT22;447;51.332;6.778;2023-07-29T12:28:05;23.50;94.30
921;DHT22;447;51.332;6.778;2023-07-29T12:30:43;23.50;94.20
921;DHT22;447;51.332;6.778;2023-07-29T12:33:30;23.60;94.20
921;DHT22;447;51.332;6.778;2023-07-29T12:35:56;23.60;94.20
921;DHT22;447;51.332;6.778;2023-07-29T12:38:26;23.60;94.10
921;DHT22;447;51.332;6.778;2023-07-29T12:40:55;23.60;94.00
921;DHT22;447;51.332;6.778;2023-07-29T12:43:21;23.70;94.10
921;DHT22;447;51.332;6.778;2023-07-29T12:45:52;23.70;94.00
921;DHT22;447;51.332;6.778;2023-07-29T12:48:18;23.70;94.00
921;DHT22;447;51.332;6.778;2023-07-29T12:50:44;23.70;93.90
921;DHT22;447;51.332;6.778;2023-07-29T12:53:10;23.80;93.90
921;DHT22;447;51.332;6.778;2023-07-29T12:55:36;23.80;93.90
921;DHT22;447;51.332;6.778;2023-07-29T12:58:04;23.80;93.80
921;DHT22;447;51.332;6.778;2023-07-29T13:00:33;23.80;93.70
921;DHT22;447;51.332;6.778;2023-07-29T13:03:05;23.80;93.70
921;DHT22;447;51.332;6.778;2023-07-29T13:05:44;23.90;93.70
921;DHT22;447;51.332;6.778;2023-07-29T13:08:10;23.90;93.50
921;DHT22;447;51.332;6.778;2023-07-29T13:10:38;23.90;93.40
921;DHT22;447;51.332;6.778;2023-07-29T13:13:07;24.00;93.40
921;DHT22;447;51.332;6.778;2023-07-29T13:15:37;24.00;93.30
921;DHT22;447;51.332;6.778;2023-07-29T13:18:08;24.00;93.20
921;DHT22;447;51.332;6.778;2023-07-29T13:20:34;24.00;93.20
921;DHT22;447;51.332;6.778;2023-07-29T13:23:03;24.00;93.20
921;DHT22;447;51.332;6.778;2023-07-29T13:25:31;24.10;93.10
921;DHT22;447;51.332;6.778;2023-07-29T13:27:59;24.10;93.00
921;DHT22;447;51.332;6.778;2023-07-29T13:30:26;24.10;93.00
921;DHT22;447;51.332;6.778;2023-07-29T13:32:52;24.10;92.90
921;DHT22;447;51.332;6.778;2023-07-29T13:35:19;24.10;92.80
921;DHT22;447;51.332;6.778;2023-07-29T13:37:47;24.10;92.80
921;DHT22;447;51.332;6.778;2023-07-29T13:40:13;24.20;92.70
921;DHT22;447;51.332;6.778;2023-07-29T13:42:41;24.20;92.70
921;DHT22;447;51.332;6.778;2023-07-29T13:45:08;24.20;92.70
921;DHT22;447;51.332;6.778;2023-07-29T13:47:34;24.20;92.70
921;DHT22;447;51.332;6.778;2023-07-29T13:50:05;24.20;92.90
921;DHT22;447;51.332;6.778;2023-07-29T13:52:35;24.20;93.20
921;DHT22;447;51.332;6.778;2023-07-29T13:55:04;24.20;93.30
921;DHT22;447;51.332;6.778;2023-07-29T13:57:31;24.20;93.40
921;DHT22;447;51.332;6.778;2023-07-29T13:59:59;24.20;93.50
921;DHT22;447;51.332;6.778;2023-07-29T14:02:25;24.20;93.50
921;DHT22;447;51.332;6.778;2023-07-29T14:04:56;24.20;93.60
921;DHT22;447;51.332;6.778;2023-07-29T14:07:24;24.20;94.00
921;DHT22;447;51.332;6.778;2023-07-29T14:09:54;24.20;93.70
921;DHT22;447;51.332;6.778;2023-07-29T14:12:20;24.20;93.80
921;DHT22;447;51.332;6.778;2023-07-29T14:14:46;24.20;93.90
921;DHT22;447;51.332;6.778;2023-07-29T14:17:13;24.20;94.00
921;DHT22;447;51.332;6.778;2023-07-29T14:19:39;24.20;94.10
921;DHT22;447;51.332;6.778;2023-07-29T14:22:05;24.20;94.30
921;DHT22;447;51.332;6.778;2023-07-29T14:24:34;24.30;94.40
921;DHT22;447;51.332;6.778;2023-07-29T14:27:00;24.20;94.40
921;DHT22;447;51.332;6.778;2023-07-29T14:29:28;24.30;94.60
921;DHT22;447;51.332;6.778;2023-07-29T14:31:57;24.30;94.60
921;DHT22;447;51.332;6.778;2023-07-29T14:34:25;24.30;94.60
921;DHT22;447;51.332;6.778;2023-07-29T14:36:53;24.40;94.60
921;DHT22;447;51.332;6.778;2023-07-29T14:39:22;24.40;94.30
921;DHT22;447;51.332;6.778;2023-07-29T14:41:48;24.40;94.10
921;DHT22;447;51.332;6.778;2023-07-29T14:44:16;24.40;93.80
921;DHT22;447;51.332;6.778;2023-07-29T14:46:43;24.40;93.80
921;DHT22;447;51.332;6.778;2023-07-29T14:49:09;24.40;93.60
921;DHT22;447;51.332;6.778;2023-07-29T14:51:35;24.50;93.60
921;DHT22;447;51.332;6.778;2023-07-29T14:54:03;24.50;93.30
921;DHT22;447;51.332;6.778;2023-07-29T14:56:34;24.50;93.40
921;DHT22;447;51.332;6.778;2023-07-29T14:59:00;24.50;93.20
921;DHT22;447;51.332;6.778;2023-07-29T15:01:26;24.50;93.10
921;DHT22;447;51.332;6.778;2023-07-29T15:03:52;24.50;92.90
921;DHT22;447;51.332;6.778;2023-07-29T15:06:18;24.50;92.50
921;DHT22;447;51.332;6.778;2023-07-29T15:08:44;24.50;92.50
921;DHT22;447;51.332;6.778;2023-07-29T15:11:10;24.50;92.60
921;DHT22;447;51.332;6.778;2023-07-29T15:13:39;24.50;92.70
921;DHT22;447;51.332;6.778;2023-07-29T15:16:05;24.50;92.80
921;DHT22;447;51.332;6.778;2023-07-29T15:18:33;24.50;92.90
921;DHT22;447;51.332;6.778;2023-07-29T15:21:00;24.50;92.90
921;DHT22;447;51.332;6.778;2023-07-29T15:23:30;24.50;93.00
921;DHT22;447;51.332;6.778;2023-07-29T15:25:58;24.50;93.10
921;DHT22;447;51.332;6.778;2023-07-29T15:28:25;24.50;93.20
921;DHT22;447;51.332;6.778;2023-07-29T15:30:52;24.50;93.30
921;DHT22;447;51.332;6.778;2023-07-29T15:33:19;24.50;93.30
921;DHT22;447;51.332;6.778;2023-07-29T15:35:48;24.50;93.40
921;DHT22;447;51.332;6.778;2023-07-29T15:38:14;24.50;93.50
921;DHT22;447;51.332;6.778;2023-07-29T15:40:42;24.60;93.60
921;DHT22;447;51.332;6.778;2023-07-29T15:43:08;24.60;93.60
921;DHT22;447;51.332;6.778;2023-07-29T15:45:35;24.60;93.60
921;DHT22;447;51.332;6.778;2023-07-29T15:48:05;24.60;93.60
921;DHT22;447;51.332;6.778;2023-07-29T15:50:34;24.70;93.90
921;DHT22;447;51.332;6.778;2023-07-29T15:53:02;24.70;93.60
921;DHT22;447;51.332;6.778;2023-07-29T15:55:34;24.70;93.50
921;DHT22;447;51.332;6.778;2023-07-29T15:58:00;24.80;93.90
921;DHT22;447;51.332;6.778;2023-07-29T16:00:29;24.80;93.40
921;DHT22;447;51.332;6.778;2023-07-29T16:02:55;24.80;93.40
921;DHT22;447;51.332;6.778;2023-07-29T16:05:24;24.90;93.40
921;DHT22;447;51.332;6.778;2023-07-29T16:07:53;24.90;93.30
921;DHT22;447;51.332;6.778;2023-07-29T16:10:26;25.00;93.30
921;DHT22;447;51.332;6.778;2023-07-29T16:12:52;25.00;93.20
921;DHT22;447;51.332;6.778;2023-07-29T16:15:18;25.00;92.90
921;DHT22;447;51.332;6.778;2023-07-29T16:17:48;25.10;92.90
921;DHT22;447;51.332;6.778;2023-07-29T16:20:20;25.20;92.80
921;DHT22;447;51.332;6.778;2023-07-29T16:22:46;25.20;92.80
921;DHT22;447;51.332;6.778;2023-07-29T16:25:12;25.20;92.60
921;DHT22;447;51.332;6.778;2023-07-29T16:27:38;25.30;92.50
921;DHT22;447;51.332;6.778;2023-07-29T16:30:06;25.30;92.30
921;DHT22;447;51.332;6.778;2023-07-29T16:32:35;25.40;92.30
921;DHT22;447;51.332;6.778;2023-07-29T16:35:03;25.40;92.10
921;DHT22;447;51.332;6.778;2023-07-29T16:37:29;25.40;92.00
921;DHT22;447;51.332;6.778;2023-07-29T16:39:55;25.50;92.00
921;DHT22;447;51.332;6.778;2023-07-29T16:42:24;25.50;91.90
921;DHT22;447;51.332;6.778;2023-07-29T16:44:52;25.60;91.90
921;DHT22;447;51.332;6.778;2023-07-29T16:47:18;25.60;91.80
921;DHT22;447;51.332;6.778;2023-07-29T16:49:44;25.70;91.60
921;DHT22;447;51.332;6.778;2023-07-29T16:52:12;25.60;91.50
921;DHT22;447;51.332;6.778;2023-07-29T16:54:40;25.70;91.60
921;DHT22;447;51.332;6.778;2023-07-29T16:57:07;25.70;91.30
921;DHT22;447;51.332;6.778;2023-07-29T16:59:32;25.70;91.20
921;DHT22;447;51.332;6.778;2023-07-29T17:02:01;25.70;91.30
921;DHT22;447;51.332;6.778;2023-07-29T17:04:30;25.70;91.30
921;DHT22;447;51.332;6.778;2023-07-29T17:06:56;25.60;91.30
921;DHT22;447;51.332;6.778;2023-07-29T17:09:24;25.60;91.50
921;DHT22;447;51.332;6.778;2023-07-29T17:11:50;25.60;91.40